SAZR/RSA METAR and TAF weather

Enter ICAO airport designator
Station Type Date Time Source
SAZR METAR 2024/01/07 18:25 UTC NOAA

SAZR 071825Z VRB04KT 4000 -TSRA BKN050CB 20/19 Q1007 RMK PP012


Station Type Date Time Source
SAZR Decoded METAR 2024/01/07 18:25 UTC NOAA

Santa Rosa Aerodrome, Argentina (SAZR) 36-34S 064-16W 191M
Jan 07, 2024 - 01:25 PM EST / 2024.01.07 1825 UTC
Wind: Variable at 5 MPH (4 KT):0
Visibility: 2 mile(s):0
Sky conditions: mostly cloudy
Weather: light rain with thunder; Cumulonimbus clouds observed
Temperature: 68 F (20 C)
Dew Point: 66 F (19 C)
Relative Humidity: 93%
Pressure (altimeter): 29.74 in. Hg (1007 hPa)
ob: SAZR 071825Z VRB04KT 4000 -TSRA BKN050CB 20/19 Q1007 RMK PP012
cycle: 18

Station Type Date Time Source
SAZR TAF 2024/03/13 00:15 UTC NOAA